sensor_id;sensor_type;location;lat;lon;timestamp;P1;durP1;ratioP1;P2;durP2;ratioP2
23346;SDS011;36852;45.466;11.066;2024-03-29T03:36:03;31.33;;;21.60;;
23346;SDS011;36852;45.466;11.066;2024-03-29T03:38:44;29.27;;;21.02;;
23346;SDS011;36852;45.466;11.066;2024-03-29T03:41:33;27.67;;;21.25;;
23346;SDS011;36852;45.466;11.066;2024-03-29T03:44:23;26.37;;;19.45;;
23346;SDS011;36852;45.466;11.066;2024-03-29T03:47:17;28.27;;;21.15;;
23346;SDS011;36852;45.466;11.066;2024-03-29T03:50:14;25.05;;;19.77;;
23346;SDS011;36852;45.466;11.066;2024-03-29T03:53:11;26.02;;;19.00;;
23346;SDS011;36852;45.466;11.066;2024-03-29T03:56:13;26.07;;;20.02;;
23346;SDS011;36852;45.466;11.066;2024-03-29T03:58:46;26.90;;;20.77;;
23346;SDS011;36852;45.466;11.066;2024-03-29T04:01:37;26.30;;;20.32;;
23346;SDS011;36852;45.466;11.066;2024-03-29T04:04:29;25.32;;;19.05;;
23346;SDS011;36852;45.466;11.066;2024-03-29T04:07:19;23.85;;;18.57;;
23346;SDS011;36852;45.466;11.066;2024-03-29T04:09:56;23.22;;;18.12;;
23346;SDS011;36852;45.466;11.066;2024-03-29T04:12:45;24.30;;;18.57;;
23346;SDS011;36852;45.466;11.066;2024-03-29T04:15:32;25.68;;;18.32;;
23346;SDS011;36852;45.466;11.066;2024-03-29T04:18:24;25.77;;;19.55;;
23346;SDS011;36852;45.466;11.066;2024-03-29T04:21:16;26.55;;;20.20;;
23346;SDS011;36852;45.466;11.066;2024-03-29T04:24:09;27.42;;;18.57;;
23346;SDS011;36852;45.466;11.066;2024-03-29T04:26:56;28.47;;;21.52;;
23346;SDS011;36852;45.466;11.066;2024-03-29T04:29:44;28.85;;;20.30;;
23346;SDS011;36852;45.466;11.066;2024-03-29T04:32:21;29.52;;;22.32;;
23346;SDS011;36852;45.466;11.066;2024-03-29T04:35:13;31.62;;;22.58;;
23346;SDS011;36852;45.466;11.066;2024-03-29T04:38:04;29.60;;;22.55;;
23346;SDS011;36852;45.466;11.066;2024-03-29T04:40:52;32.15;;;23.95;;
23346;SDS011;36852;45.466;11.066;2024-03-29T04:43:26;32.42;;;24.32;;
23346;SDS011;36852;45.466;11.066;2024-03-29T04:46:08;29.10;;;22.17;;
23346;SDS011;36852;45.466;11.066;2024-03-29T04:48:43;26.50;;;21.35;;
23346;SDS011;36852;45.466;11.066;2024-03-29T04:51:41;27.58;;;20.00;;
23346;SDS011;36852;45.466;11.066;2024-03-29T04:54:32;24.18;;;18.05;;
23346;SDS011;36852;45.466;11.066;2024-03-29T04:57:22;27.85;;;20.37;;
23346;SDS011;36852;45.466;11.066;2024-03-29T05:00:16;27.50;;;20.05;;
23346;SDS011;36852;45.466;11.066;2024-03-29T05:03:14;31.45;;;18.85;;
23346;SDS011;36852;45.466;11.066;2024-03-29T05:06:04;32.53;;;19.85;;
23346;SDS011;36852;45.466;11.066;2024-03-29T05:08:45;33.58;;;21.68;;
23346;SDS011;36852;45.466;11.066;2024-03-29T05:11:37;33.65;;;22.15;;
23346;SDS011;36852;45.466;11.066;2024-03-29T05:14:31;36.20;;;25.45;;
23346;SDS011;36852;45.466;11.066;2024-03-29T05:17:26;34.95;;;25.27;;
23346;SDS011;36852;45.466;11.066;2024-03-29T05:20:19;33.35;;;23.85;;
23346;SDS011;36852;45.466;11.066;2024-03-29T05:23:11;35.92;;;23.32;;
23346;SDS011;36852;45.466;11.066;2024-03-29T05:26:06;32.25;;;23.42;;
23346;SDS011;36852;45.466;11.066;2024-03-29T05:28:50;32.78;;;22.20;;
23346;SDS011;36852;45.466;11.066;2024-03-29T05:31:43;32.58;;;22.80;;
23346;SDS011;36852;45.466;11.066;2024-03-29T05:34:37;30.62;;;21.37;;
23346;SDS011;36852;45.466;11.066;2024-03-29T05:37:27;30.97;;;20.90;;
23346;SDS011;36852;45.466;11.066;2024-03-29T05:40:16;31.27;;;20.52;;
23346;SDS011;36852;45.466;11.066;2024-03-29T05:43:14;28.52;;;21.40;;
23346;SDS011;36852;45.466;11.066;2024-03-29T05:46:03;27.40;;;19.48;;
23346;SDS011;36852;45.466;11.066;2024-03-29T05:49:13;30.77;;;19.55;;
23346;SDS011;36852;45.466;11.066;2024-03-29T05:52:08;30.62;;;20.50;;
23346;SDS011;36852;45.466;11.066;2024-03-29T05:54:59;27.67;;;20.50;;
23346;SDS011;36852;45.466;11.066;2024-03-29T05:58:00;28.85;;;20.55;;
23346;SDS011;36852;45.466;11.066;2024-03-29T06:01:05;27.40;;;19.67;;
23346;SDS011;36852;45.466;11.066;2024-03-29T06:04:01;25.02;;;19.35;;
23346;SDS011;36852;45.466;11.066;2024-03-29T06:07:08;28.77;;;18.17;;
23346;SDS011;36852;45.466;11.066;2024-03-29T06:10:11;23.00;;;17.27;;
23346;SDS011;36852;45.466;11.066;2024-03-29T06:13:14;29.63;;;18.87;;
23346;SDS011;36852;45.466;11.066;2024-03-29T06:16:28;22.50;;;17.20;;
23346;SDS011;36852;45.466;11.066;2024-03-29T06:19:45;23.75;;;17.50;;
23346;SDS011;36852;45.466;11.066;2024-03-29T06:22:42;24.95;;;17.42;;
23346;SDS011;36852;45.466;11.066;2024-03-29T06:25:36;26.33;;;18.15;;
23346;SDS011;36852;45.466;11.066;2024-03-29T06:28:04;29.65;;;21.27;;
23346;SDS011;36852;45.466;11.066;2024-03-29T06:30:33;25.52;;;19.27;;
23346;SDS011;36852;45.466;11.066;2024-03-29T06:33:01;30.48;;;20.55;;
23346;SDS011;36852;45.466;11.066;2024-03-29T06:35:31;29.30;;;20.37;;
23346;SDS011;36852;45.466;11.066;2024-03-29T06:37:59;31.02;;;22.45;;
23346;SDS011;36852;45.466;11.066;2024-03-29T06:40:28;29.42;;;20.50;;
23346;SDS011;36852;45.466;11.066;2024-03-29T06:43:02;24.90;;;19.42;;
23346;SDS011;36852;45.466;11.066;2024-03-29T06:45:47;27.13;;;19.37;;
23346;SDS011;36852;45.466;11.066;2024-03-29T06:48:38;30.55;;;21.27;;
23346;SDS011;36852;45.466;11.066;2024-03-29T06:51:31;25.17;;;18.32;;
23346;SDS011;36852;45.466;11.066;2024-03-29T06:53:58;23.25;;;17.98;;
23346;SDS011;36852;45.466;11.066;2024-03-29T06:56:32;21.27;;;15.90;;
23346;SDS011;36852;45.466;11.066;2024-03-29T06:59:02;20.05;;;14.80;;
23346;SDS011;36852;45.466;11.066;2024-03-29T07:01:39;20.32;;;14.65;;
23346;SDS011;36852;45.466;11.066;2024-03-29T07:04:08;20.23;;;14.87;;
23346;SDS011;36852;45.466;11.066;2024-03-29T07:06:41;24.32;;;15.05;;
23346;SDS011;36852;45.466;11.066;2024-03-29T07:09:14;20.17;;;10.43;;
23346;SDS011;36852;45.466;11.066;2024-03-29T07:11:59;13.85;;;7.03;;
23346;SDS011;36852;45.466;11.066;2024-03-29T07:14:44;12.33;;;7.00;;
23346;SDS011;36852;45.466;11.066;2024-03-29T07:17:16;15.35;;;7.15;;
23346;SDS011;36852;45.466;11.066;2024-03-29T07:20:09;16.15;;;9.13;;
23346;SDS011;36852;45.466;11.066;2024-03-29T07:22:56;15.00;;;8.50;;
23346;SDS011;36852;45.466;11.066;2024-03-29T07:25:25;12.65;;;6.60;;
23346;SDS011;36852;45.466;11.066;2024-03-29T07:27:56;9.88;;;7.92;;
23346;SDS011;36852;45.466;11.066;2024-03-29T07:30:34;18.27;;;6.97;;
23346;SDS011;36852;45.466;11.066;2024-03-29T07:33:35;10.95;;;7.80;;
23346;SDS011;36852;45.466;11.066;2024-03-29T07:36:31;13.68;;;6.30;;
23346;SDS011;36852;45.466;11.066;2024-03-29T07:39:29;9.68;;;5.62;;
23346;SDS011;36852;45.466;11.066;2024-03-29T07:42:18;11.18;;;4.53;;
23346;SDS011;36852;45.466;11.066;2024-03-29T07:45:04;11.85;;;5.15;;
23346;SDS011;36852;45.466;11.066;2024-03-29T07:47:56;7.17;;;4.12;;
23346;SDS011;36852;45.466;11.066;2024-03-29T07:50:35;10.28;;;3.08;;
23346;SDS011;36852;45.466;11.066;2024-03-29T07:53:26;10.28;;;3.35;;
23346;SDS011;36852;45.466;11.066;2024-03-29T07:56:28;10.03;;;2.62;;
23346;SDS011;36852;45.466;11.066;2024-03-29T07:59:19;11.12;;;2.90;;
23346;SDS011;36852;45.466;11.066;2024-03-29T08:01:53;11.95;;;2.80;;
23346;SDS011;36852;45.466;11.066;2024-03-29T08:04:44;4.97;;;2.12;;
23346;SDS011;36852;45.466;11.066;2024-03-29T08:14:18;12.77;;;2.80;;
23346;SDS011;36852;45.466;11.066;2024-03-29T08:17:16;5.95;;;2.30;;
23346;SDS011;36852;45.466;11.066;2024-03-29T08:20:22;8.88;;;3.12;;
23346;SDS011;36852;45.466;11.066;2024-03-29T08:23:19;8.28;;;2.10;;
23346;SDS011;36852;45.466;11.066;2024-03-29T08:33:12;8.60;;;2.45;;
23346;SDS011;36852;45.466;11.066;2024-03-29T08:39:51;10.72;;;2.35;;
23346;SDS011;36852;45.466;11.066;2024-03-29T08:42:50;9.03;;;2.15;;
23346;SDS011;36852;45.466;11.066;2024-03-29T08:46:25;12.55;;;2.98;;
23346;SDS011;36852;45.466;11.066;2024-03-29T08:49:22;8.40;;;1.90;;
23346;SDS011;36852;45.466;11.066;2024-03-29T08:52:31;19.67;;;2.95;;
23346;SDS011;36852;45.466;11.066;2024-03-29T08:55:21;16.75;;;2.98;;
23346;SDS011;36852;45.466;11.066;2024-03-29T08:57:53;13.03;;;3.33;;
23346;SDS011;36852;45.466;11.066;2024-03-29T09:03:29;14.28;;;2.60;;
23346;SDS011;36852;45.466;11.066;2024-03-29T09:09:12;13.62;;;2.30;;
23346;SDS011;36852;45.466;11.066;2024-03-29T09:11:42;12.05;;;2.80;;
23346;SDS011;36852;45.466;11.066;2024-03-29T09:14:11;13.65;;;2.47;;
23346;SDS011;36852;45.466;11.066;2024-03-29T09:16:39;10.85;;;2.87;;
23346;SDS011;36852;45.466;11.066;2024-03-29T09:19:08;7.83;;;1.55;;
23346;SDS011;36852;45.466;11.066;2024-03-29T09:21:37;8.90;;;2.00;;
23346;SDS011;36852;45.466;11.066;2024-03-29T09:24:07;10.78;;;2.45;;
23346;SDS011;36852;45.466;11.066;2024-03-29T09:26:38;9.45;;;2.42;;
23346;SDS011;36852;45.466;11.066;2024-03-29T09:29:11;6.37;;;2.40;;
23346;SDS011;36852;45.466;11.066;2024-03-29T09:31:40;9.03;;;2.27;;
23346;SDS011;36852;45.466;11.066;2024-03-29T09:34:15;7.37;;;2.40;;
23346;SDS011;36852;45.466;11.066;2024-03-29T09:36:57;8.18;;;2.65;;
23346;SDS011;36852;45.466;11.066;2024-03-29T09:39:51;14.50;;;2.75;;
23346;SDS011;36852;45.466;11.066;2024-03-29T09:45:37;9.00;;;2.50;;
23346;SDS011;36852;45.466;11.066;2024-03-29T09:48:18;7.42;;;2.30;;
23346;SDS011;36852;45.466;11.066;2024-03-29T09:51:16;9.25;;;2.00;;
23346;SDS011;36852;45.466;11.066;2024-03-29T09:54:13;8.45;;;2.40;;
23346;SDS011;36852;45.466;11.066;2024-03-29T09:56:43;7.97;;;2.15;;
23346;SDS011;36852;45.466;11.066;2024-03-29T09:59:13;8.40;;;2.27;;
23346;SDS011;36852;45.466;11.066;2024-03-29T10:01:41;7.87;;;1.82;;
23346;SDS011;36852;45.466;11.066;2024-03-29T10:04:09;6.75;;;2.05;;
23346;SDS011;36852;45.466;11.066;2024-03-29T10:06:40;11.63;;;1.85;;
23346;SDS011;36852;45.466;11.066;2024-03-29T10:09:10;13.20;;;2.62;;
23346;SDS011;36852;45.466;11.066;2024-03-29T10:11:39;6.72;;;1.92;;
23346;SDS011;36852;45.466;11.066;2024-03-29T10:14:08;10.08;;;2.17;;
23346;SDS011;36852;45.466;11.066;2024-03-29T10:16:36;11.45;;;2.58;;
23346;SDS011;36852;45.466;11.066;2024-03-29T10:19:04;11.50;;;2.92;;
23346;SDS011;36852;45.466;11.066;2024-03-29T10:21:34;9.63;;;2.10;;
23346;SDS011;36852;45.466;11.066;2024-03-29T10:24:13;6.40;;;2.10;;
23346;SDS011;36852;45.466;11.066;2024-03-29T10:26:44;9.05;;;2.35;;
23346;SDS011;36852;45.466;11.066;2024-03-29T10:29:13;10.90;;;1.72;;
23346;SDS011;36852;45.466;11.066;2024-03-29T10:31:42;8.30;;;1.85;;
23346;SDS011;36852;45.466;11.066;2024-03-29T10:34:10;7.37;;;2.12;;
23346;SDS011;36852;45.466;11.066;2024-03-29T10:36:57;8.63;;;2.15;;
23346;SDS011;36852;45.466;11.066;2024-03-29T10:39:26;8.03;;;2.08;;
23346;SDS011;36852;45.466;11.066;2024-03-29T10:41:56;8.28;;;1.98;;
23346;SDS011;36852;45.466;11.066;2024-03-29T10:44:26;8.90;;;2.17;;
23346;SDS011;36852;45.466;11.066;2024-03-29T10:46:58;10.48;;;2.20;;
23346;SDS011;36852;45.466;11.066;2024-03-29T10:49:30;10.15;;;2.45;;
23346;SDS011;36852;45.466;11.066;2024-03-29T10:52:02;6.00;;;1.67;;
23346;SDS011;36852;45.466;11.066;2024-03-29T10:54:33;9.28;;;2.45;;
23346;SDS011;36852;45.466;11.066;2024-03-29T10:57:12;7.33;;;1.67;;
23346;SDS011;36852;45.466;11.066;2024-03-29T11:25:36;11.73;;;2.02;;
23346;SDS011;36852;45.466;11.066;2024-03-29T11:28:38;9.70;;;2.55;;
23346;SDS011;36852;45.466;11.066;2024-03-29T11:31:29;11.35;;;1.90;;
23346;SDS011;36852;45.466;11.066;2024-03-29T11:34:45;12.45;;;2.58;;
23346;SDS011;36852;45.466;11.066;2024-03-29T11:44:15;8.20;;;2.95;;
23346;SDS011;36852;45.466;11.066;2024-03-29T11:46:45;10.70;;;2.75;;
23346;SDS011;36852;45.466;11.066;2024-03-29T11:49:17;9.85;;;2.25;;
23346;SDS011;36852;45.466;11.066;2024-03-29T11:54:49;9.25;;;2.15;;
23346;SDS011;36852;45.466;11.066;2024-03-29T11:57:48;8.90;;;2.15;;
23346;SDS011;36852;45.466;11.066;2024-03-29T12:00:46;9.68;;;2.10;;
23346;SDS011;36852;45.466;11.066;2024-03-29T12:07:09;8.33;;;2.47;;
23346;SDS011;36852;45.466;11.066;2024-03-29T12:09:58;12.80;;;2.62;;
23346;SDS011;36852;45.466;11.066;2024-03-29T12:12:56;10.58;;;2.35;;
23346;SDS011;36852;45.466;11.066;2024-03-29T12:16:05;12.33;;;2.72;;
23346;SDS011;36852;45.466;11.066;2024-03-29T12:19:05;8.25;;;3.00;;
23346;SDS011;36852;45.466;11.066;2024-03-29T12:22:21;7.70;;;2.52;;
23346;SDS011;36852;45.466;11.066;2024-03-29T12:28:20;10.70;;;2.17;;
23346;SDS011;36852;45.466;11.066;2024-03-29T12:51:40;12.98;;;2.30;;
23346;SDS011;36852;45.466;11.066;2024-03-29T12:54:11;8.20;;;2.22;;
23346;SDS011;36852;45.466;11.066;2024-03-29T12:56:40;13.62;;;2.47;;
23346;SDS011;36852;45.466;11.066;2024-03-29T12:59:10;10.40;;;2.45;;
23346;SDS011;36852;45.466;11.066;2024-03-29T13:01:38;9.13;;;2.25;;
23346;SDS011;36852;45.466;11.066;2024-03-29T13:13:16;17.07;;;2.95;;
23346;SDS011;36852;45.466;11.066;2024-03-29T13:15:46;9.73;;;1.92;;
23346;SDS011;36852;45.466;11.066;2024-03-29T13:18:14;8.83;;;1.80;;
23346;SDS011;36852;45.466;11.066;2024-03-29T13:20:44;10.40;;;2.15;;
23346;SDS011;36852;45.466;11.066;2024-03-29T13:23:15;10.30;;;2.37;;
23346;SDS011;36852;45.466;11.066;2024-03-29T13:25:43;10.35;;;2.08;;
23346;SDS011;36852;45.466;11.066;2024-03-29T13:28:12;12.82;;;3.20;;
23346;SDS011;36852;45.466;11.066;2024-03-29T13:30:45;10.90;;;2.10;;
23346;SDS011;36852;45.466;11.066;2024-03-29T13:33:14;21.62;;;3.02;;
23346;SDS011;36852;45.466;11.066;2024-03-29T13:35:43;18.02;;;2.92;;
23346;SDS011;36852;45.466;11.066;2024-03-29T13:38:16;8.30;;;1.95;;
23346;SDS011;36852;45.466;11.066;2024-03-29T13:40:45;14.87;;;2.77;;
23346;SDS011;36852;45.466;11.066;2024-03-29T13:43:14;16.40;;;2.92;;
23346;SDS011;36852;45.466;11.066;2024-03-29T13:45:43;11.90;;;2.22;;
23346;SDS011;36852;45.466;11.066;2024-03-29T13:48:13;12.45;;;2.40;;
23346;SDS011;36852;45.466;11.066;2024-03-29T13:50:42;12.23;;;1.98;;
23346;SDS011;36852;45.466;11.066;2024-03-29T13:59:34;18.82;;;3.10;;
23346;SDS011;36852;45.466;11.066;2024-03-29T14:06:03;15.83;;;2.42;;
23346;SDS011;36852;45.466;11.066;2024-03-29T14:27:29;13.25;;;2.65;;
23346;SDS011;36852;45.466;11.066;2024-03-29T14:30:06;10.25;;;2.22;;
23346;SDS011;36852;45.466;11.066;2024-03-29T14:35:34;12.20;;;2.58;;
23346;SDS011;36852;45.466;11.066;2024-03-29T14:38:04;15.10;;;2.33;;
23346;SDS011;36852;45.466;11.066;2024-03-29T14:40:33;9.10;;;2.22;;
23346;SDS011;36852;45.466;11.066;2024-03-29T14:43:01;10.70;;;2.30;;
23346;SDS011;36852;45.466;11.066;2024-03-29T14:45:34;18.23;;;3.22;;
23346;SDS011;36852;45.466;11.066;2024-03-29T14:48:04;16.42;;;4.70;;
23346;SDS011;36852;45.466;11.066;2024-03-29T14:50:40;15.68;;;3.33;;
23346;SDS011;36852;45.466;11.066;2024-03-29T14:53:13;23.25;;;4.55;;
23346;SDS011;36852;45.466;11.066;2024-03-29T14:55:44;13.30;;;4.72;;
23346;SDS011;36852;45.466;11.066;2024-03-29T14:58:29;14.90;;;4.87;;
23346;SDS011;36852;45.466;11.066;2024-03-29T15:04:27;15.25;;;4.00;;
23346;SDS011;36852;45.466;11.066;2024-03-29T15:09:55;15.65;;;3.17;;
23346;SDS011;36852;45.466;11.066;2024-03-29T15:12:25;14.43;;;3.00;;
23346;SDS011;36852;45.466;11.066;2024-03-29T15:14:53;13.45;;;2.70;;
23346;SDS011;36852;45.466;11.066;2024-03-29T15:17:22;19.17;;;3.62;;
23346;SDS011;36852;45.466;11.066;2024-03-29T15:19:51;10.75;;;3.10;;
23346;SDS011;36852;45.466;11.066;2024-03-29T15:22:20;20.55;;;3.40;;
23346;SDS011;36852;45.466;11.066;2024-03-29T15:24:48;13.95;;;3.42;;
23346;SDS011;36852;45.466;11.066;2024-03-29T15:27:17;10.43;;;3.37;;
23346;SDS011;36852;45.466;11.066;2024-03-29T15:29:58;17.45;;;3.08;;
23346;SDS011;36852;45.466;11.066;2024-03-29T15:32:30;19.73;;;3.55;;
23346;SDS011;36852;45.466;11.066;2024-03-29T15:35:06;17.70;;;3.22;;
23346;SDS011;36852;45.466;11.066;2024-03-29T15:37:41;13.28;;;2.80;;
23346;SDS011;36852;45.466;11.066;2024-03-29T15:40:14;17.77;;;4.33;;
23346;SDS011;36852;45.466;11.066;2024-03-29T15:42:46;16.80;;;4.25;;
23346;SDS011;36852;45.466;11.066;2024-03-29T15:45:18;15.50;;;3.65;;
23346;SDS011;36852;45.466;11.066;2024-03-29T15:47:52;16.15;;;3.90;;
23346;SDS011;36852;45.466;11.066;2024-03-29T15:50:24;12.75;;;4.05;;
23346;SDS011;36852;45.466;11.066;2024-03-29T15:52:58;14.95;;;3.45;;
23346;SDS011;36852;45.466;11.066;2024-03-29T15:55:30;14.70;;;2.80;;
23346;SDS011;36852;45.466;11.066;2024-03-29T15:58:00;10.75;;;3.27;;
23346;SDS011;36852;45.466;11.066;2024-03-29T16:00:33;15.40;;;3.30;;
23346;SDS011;36852;45.466;11.066;2024-03-29T16:03:07;12.13;;;4.03;;
23346;SDS011;36852;45.466;11.066;2024-03-29T16:05:46;20.55;;;4.72;;
23346;SDS011;36852;45.466;11.066;2024-03-29T16:08:17;12.80;;;4.20;;
23346;SDS011;36852;45.466;11.066;2024-03-29T16:10:57;20.65;;;4.50;;
23346;SDS011;36852;45.466;11.066;2024-03-29T16:13:31;16.48;;;4.70;;
23346;SDS011;36852;45.466;11.066;2024-03-29T16:16:03;20.82;;;6.17;;
23346;SDS011;36852;45.466;11.066;2024-03-29T16:18:34;26.52;;;5.53;;
23346;SDS011;36852;45.466;11.066;2024-03-29T16:21:04;19.52;;;5.62;;
23346;SDS011;36852;45.466;11.066;2024-03-29T16:23:36;18.82;;;5.83;;
23346;SDS011;36852;45.466;11.066;2024-03-29T16:26:09;18.42;;;5.08;;
23346;SDS011;36852;45.466;11.066;2024-03-29T16:28:40;15.90;;;5.83;;
23346;SDS011;36852;45.466;11.066;2024-03-29T16:31:10;23.20;;;5.40;;
23346;SDS011;36852;45.466;11.066;2024-03-29T16:33:41;18.27;;;6.00;;
23346;SDS011;36852;45.466;11.066;2024-03-29T16:36:11;19.35;;;5.20;;
23346;SDS011;36852;45.466;11.066;2024-03-29T16:38:40;15.70;;;3.98;;
23346;SDS011;36852;45.466;11.066;2024-03-29T16:41:08;19.00;;;3.85;;
23346;SDS011;36852;45.466;11.066;2024-03-29T16:43:39;12.75;;;3.75;;
23346;SDS011;36852;45.466;11.066;2024-03-29T16:46:09;16.48;;;4.03;;
23346;SDS011;36852;45.466;11.066;2024-03-29T16:48:40;12.80;;;3.85;;
23346;SDS011;36852;45.466;11.066;2024-03-29T16:51:10;14.45;;;5.33;;
23346;SDS011;36852;45.466;11.066;2024-03-29T16:53:41;25.30;;;7.22;;
23346;SDS011;36852;45.466;11.066;2024-03-29T16:56:13;22.00;;;4.65;;
23346;SDS011;36852;45.466;11.066;2024-03-29T16:58:42;18.80;;;4.12;;
23346;SDS011;36852;45.466;11.066;2024-03-29T17:01:12;19.37;;;5.08;;
23346;SDS011;36852;45.466;11.066;2024-03-29T17:03:43;22.85;;;4.55;;
23346;SDS011;36852;45.466;11.066;2024-03-29T17:06:14;18.42;;;3.40;;
23346;SDS011;36852;45.466;11.066;2024-03-29T17:08:44;15.75;;;4.42;;
23346;SDS011;36852;45.466;11.066;2024-03-29T17:11:13;14.28;;;4.30;;
23346;SDS011;36852;45.466;11.066;2024-03-29T17:13:43;17.85;;;3.83;;
23346;SDS011;36852;45.466;11.066;2024-03-29T17:16:14;14.90;;;3.40;;
23346;SDS011;36852;45.466;11.066;2024-03-29T17:18:43;16.32;;;4.12;;
23346;SDS011;36852;45.466;11.066;2024-03-29T17:21:13;13.22;;;3.87;;
23346;SDS011;36852;45.466;11.066;2024-03-29T17:23:42;17.30;;;4.25;;
23346;SDS011;36852;45.466;11.066;2024-03-29T17:26:12;17.82;;;3.80;;
23346;SDS011;36852;45.466;11.066;2024-03-29T17:28:42;13.70;;;3.87;;
23346;SDS011;36852;45.466;11.066;2024-03-29T17:31:11;16.20;;;4.20;;
23346;SDS011;36852;45.466;11.066;2024-03-29T17:33:41;15.65;;;3.65;;
23346;SDS011;36852;45.466;11.066;2024-03-29T17:36:10;16.80;;;4.40;;
23346;SDS011;36852;45.466;11.066;2024-03-29T17:38:39;14.18;;;4.42;;
23346;SDS011;36852;45.466;11.066;2024-03-29T17:41:08;19.90;;;4.45;;
23346;SDS011;36852;45.466;11.066;2024-03-29T17:43:38;12.50;;;3.92;;
23346;SDS011;36852;45.466;11.066;2024-03-29T17:46:07;22.55;;;3.92;;
23346;SDS011;36852;45.466;11.066;2024-03-29T17:48:38;18.65;;;5.03;;
23346;SDS011;36852;45.466;11.066;2024-03-29T17:51:06;13.75;;;4.03;;
23346;SDS011;36852;45.466;11.066;2024-03-29T17:53:35;11.60;;;4.20;;
23346;SDS011;36852;45.466;11.066;2024-03-29T17:56:04;17.75;;;3.85;;
23346;SDS011;36852;45.466;11.066;2024-03-29T17:58:35;14.65;;;5.25;;
23346;SDS011;36852;45.466;11.066;2024-03-29T18:53:34;24.50;;;5.50;;
23346;SDS011;36852;45.466;11.066;2024-03-29T18:56:04;20.95;;;5.42;;
23346;SDS011;36852;45.466;11.066;2024-03-29T18:58:32;22.82;;;5.97;;
23346;SDS011;36852;45.466;11.066;2024-03-29T19:01:00;19.77;;;4.67;;
23346;SDS011;36852;45.466;11.066;2024-03-29T19:03:28;19.73;;;5.83;;
23346;SDS011;36852;45.466;11.066;2024-03-29T19:05:58;27.87;;;5.20;;
23346;SDS011;36852;45.466;11.066;2024-03-29T19:08:26;23.30;;;5.78;;
23346;SDS011;36852;45.466;11.066;2024-03-29T19:10:56;21.10;;;4.67;;
23346;SDS011;36852;45.466;11.066;2024-03-29T19:13:24;19.57;;;5.40;;
23346;SDS011;36852;45.466;11.066;2024-03-29T20:09:15;23.57;;;3.27;;
23346;SDS011;36852;45.466;11.066;2024-03-29T20:11:43;22.22;;;3.12;;
23346;SDS011;36852;45.466;11.066;2024-03-29T20:14:11;23.22;;;3.10;;
23346;SDS011;36852;45.466;11.066;2024-03-29T20:16:39;19.10;;;3.47;;
23346;SDS011;36852;45.466;11.066;2024-03-29T20:19:07;20.70;;;3.92;;
23346;SDS011;36852;45.466;11.066;2024-03-29T20:21:37;20.05;;;3.58;;
23346;SDS011;36852;45.466;11.066;2024-03-29T20:24:06;20.23;;;3.60;;
23346;SDS011;36852;45.466;11.066;2024-03-29T20:26:36;29.20;;;4.40;;
23346;SDS011;36852;45.466;11.066;2024-03-29T20:29:26;18.92;;;3.27;;
23346;SDS011;36852;45.466;11.066;2024-03-29T20:31:56;16.55;;;3.20;;
23346;SDS011;36852;45.466;11.066;2024-03-29T20:34:26;16.40;;;4.40;;
23346;SDS011;36852;45.466;11.066;2024-03-29T20:39:44;22.67;;;3.92;;
23346;SDS011;36852;45.466;11.066;2024-03-29T20:42:16;12.47;;;4.83;;
23346;SDS011;36852;45.466;11.066;2024-03-29T20:44:53;21.05;;;4.50;;
23346;SDS011;36852;45.466;11.066;2024-03-29T20:47:22;20.60;;;4.28;;
23346;SDS011;36852;45.466;11.066;2024-03-29T20:49:50;17.32;;;4.53;;
23346;SDS011;36852;45.466;11.066;2024-03-29T20:55:14;25.70;;;5.25;;
23346;SDS011;36852;45.466;11.066;2024-03-29T21:03:29;29.63;;;5.20;;
23346;SDS011;36852;45.466;11.066;2024-03-29T21:06:20;20.17;;;5.75;;
